createdAt,value
2023-02-24T00:00:35.157Z,2.68
2023-02-24T00:03:05.943Z,2.70
2023-02-24T00:05:49.947Z,2.66
2023-02-24T00:08:16.779Z,2.65
2023-02-24T00:10:49.918Z,2.64
2023-02-24T00:13:22.214Z,2.65
2023-02-24T00:16:10.515Z,2.63
2023-02-24T00:18:37.266Z,2.73
2023-02-24T00:21:09.998Z,2.76
2023-02-24T00:23:38.309Z,2.74
2023-02-24T00:26:10.871Z,2.67
2023-02-24T00:28:47.104Z,2.66
2023-02-24T00:31:24.614Z,2.61
2023-02-24T00:33:56.844Z,2.58
2023-02-24T00:36:25.297Z,2.57
2023-02-24T00:39:10.122Z,2.59
2023-02-24T00:41:52.077Z,2.56
2023-02-24T00:44:18.918Z,2.55
2023-02-24T00:46:48.887Z,2.47
2023-02-24T00:49:24.514Z,2.45
2023-02-24T00:51:55.512Z,2.43
2023-02-24T00:54:32.368Z,2.44
2023-02-24T00:57:08.195Z,2.45
2023-02-24T00:59:37.161Z,2.44
2023-02-24T01:02:09.986Z,2.43
2023-02-24T01:04:37.774Z,2.46
2023-02-24T01:07:10.556Z,2.43
2023-02-24T01:09:46.757Z,2.46
2023-02-24T01:12:32.224Z,2.45
2023-02-24T01:15:03.085Z,2.44
2023-02-24T01:17:35.754Z,2.42
2023-02-24T01:20:15.965Z,2.44
2023-02-24T01:22:56.775Z,2.41
2023-02-24T01:25:26.212Z,2.37
2023-02-24T01:27:54.094Z,2.38
2023-02-24T01:30:22.306Z,2.41
2023-02-24T01:32:49.319Z,2.41
2023-02-24T01:35:22.270Z,2.38
2023-02-24T01:37:53.295Z,2.38
2023-02-24T01:40:21.621Z,2.39
2023-02-24T01:42:49.652Z,2.40
2023-02-24T01:45:25.007Z,2.41
2023-02-24T01:47:57.117Z,2.38
2023-02-24T01:50:26.969Z,2.39
2023-02-24T01:53:03.677Z,2.39
2023-02-24T01:55:51.350Z,2.37
2023-02-24T01:58:28.540Z,2.37
2023-02-24T02:01:00.679Z,2.36
2023-02-24T02:03:35.246Z,2.36
2023-02-24T02:06:12.584Z,2.32
2023-02-24T02:08:48.539Z,2.30
2023-02-24T02:11:23.598Z,2.34
2023-02-24T02:14:00.519Z,2.36
2023-02-24T02:17:44.920Z,2.36
2023-02-24T02:21:26.298Z,2.41
2023-02-24T02:24:19.464Z,2.44
2023-02-24T02:27:29.952Z,2.47
2023-02-24T02:30:07.085Z,2.47
2023-02-24T02:33:24.670Z,2.45
2023-02-24T02:36:50.786Z,2.41
2023-02-24T02:39:59.045Z,2.39
2023-02-24T02:42:50.338Z,2.35
2023-02-24T02:45:59.097Z,2.32
2023-02-24T02:49:04.606Z,2.31
2023-02-24T02:51:57.362Z,2.33
2023-02-24T02:54:51.900Z,2.35
2023-02-24T02:57:32.085Z,2.36
2023-02-24T03:00:29.254Z,2.34
2023-02-24T03:03:13.005Z,2.35
2023-02-24T03:06:04.638Z,2.35
2023-02-24T03:08:44.157Z,2.37
2023-02-24T03:11:20.480Z,2.38
2023-02-24T03:13:56.008Z,2.42
2023-02-24T03:16:27.764Z,2.37
2023-02-24T03:19:06.260Z,2.35
2023-02-24T03:22:06.184Z,2.32
2023-02-24T03:24:43.474Z,2.33
2023-02-24T03:27:28.806Z,2.35
2023-02-24T03:30:15.651Z,2.30
2023-02-24T03:33:19.976Z,2.31
2023-02-24T03:35:51.120Z,2.29
2023-02-24T03:38:24.438Z,2.33
2023-02-24T03:40:56.624Z,2.35
2023-02-24T03:43:46.950Z,2.37
2023-02-24T03:46:17.385Z,2.41
2023-02-24T03:49:06.252Z,2.41
2023-02-24T03:51:33.864Z,2.42
2023-02-24T03:55:06.422Z,2.39
2023-02-24T03:58:02.353Z,2.41
2023-02-24T04:01:10.918Z,2.37
2023-02-24T04:04:27.263Z,2.30
2023-02-24T04:07:26.376Z,2.30
2023-02-24T04:10:31.580Z,2.25
2023-02-24T04:13:38.948Z,2.27
2023-02-24T04:16:28.929Z,2.30
2023-02-24T04:19:16.551Z,2.32
2023-02-24T04:21:56.095Z,2.36
2023-02-24T04:24:30.830Z,2.40
2023-02-24T04:27:04.439Z,2.40
2023-02-24T04:29:52.285Z,2.44
2023-02-24T04:32:29.480Z,2.41
2023-02-24T04:35:11.974Z,2.48
2023-02-24T04:37:51.666Z,2.49
2023-02-24T04:40:28.351Z,2.52
2023-02-24T04:42:58.588Z,2.54
2023-02-24T04:45:30.372Z,2.53
2023-02-24T04:48:02.154Z,2.56
2023-02-24T04:50:40.502Z,2.58
2023-02-24T04:53:19.480Z,2.54
2023-02-24T04:55:48.992Z,2.52
2023-02-24T04:58:22.116Z,2.44
2023-02-24T05:00:55.917Z,2.40
2023-02-24T05:03:28.226Z,2.38
2023-02-24T05:06:00.072Z,2.36
2023-02-24T05:08:30.821Z,2.33
2023-02-24T05:11:03.860Z,2.28
2023-02-24T05:13:46.890Z,2.26
2023-02-24T05:16:17.978Z,2.22
2023-02-24T05:18:44.985Z,2.19
2023-02-24T05:21:35.746Z,2.16
2023-02-24T05:24:06.792Z,2.15
2023-02-24T05:26:45.351Z,2.09
2023-02-24T05:29:13.173Z,2.05
2023-02-24T05:31:46.285Z,2.02
2023-02-24T05:34:19.215Z,2.02
2023-02-24T05:36:46.576Z,1.98
2023-02-24T05:39:19.426Z,1.97
2023-02-24T05:41:49.899Z,1.92
2023-02-24T05:44:23.293Z,1.97
2023-02-24T05:47:00.194Z,1.90
2023-02-24T05:49:33.803Z,1.90
2023-02-24T05:52:10.581Z,1.87
2023-02-24T05:54:45.264Z,1.84
2023-02-24T05:57:20.904Z,1.86
2023-02-24T05:59:54.163Z,1.82
2023-02-24T06:02:27.635Z,1.75
2023-02-24T06:04:58.979Z,1.74
2023-02-24T06:07:34.116Z,1.75
2023-02-24T06:10:04.845Z,1.73
2023-02-24T06:12:35.295Z,1.72
2023-02-24T06:15:07.494Z,1.74
2023-02-24T06:17:37.553Z,1.73
2023-02-24T06:20:15.676Z,1.74
2023-02-24T06:22:45.195Z,1.75
2023-02-24T06:25:14.168Z,1.72
2023-02-24T06:27:43.981Z,1.76
2023-02-24T06:30:12.145Z,1.72
2023-02-24T06:32:43.649Z,1.72
2023-02-24T06:35:12.777Z,1.70
2023-02-24T06:37:41.958Z,1.69
2023-02-24T06:40:19.704Z,1.67
2023-02-24T06:42:57.061Z,1.62
2023-02-24T06:45:26.263Z,1.59
2023-02-24T06:47:56.779Z,1.60
2023-02-24T06:50:23.626Z,1.59
2023-02-24T06:53:00.878Z,1.58
2023-02-24T06:55:28.754Z,1.60
2023-02-24T06:58:04.616Z,1.61
2023-02-24T07:00:56.705Z,1.59
2023-02-24T07:03:41.715Z,1.62
2023-02-24T07:06:27.847Z,1.62
2023-02-24T07:08:58.242Z,1.62
2023-02-24T07:11:28.006Z,1.64
2023-02-24T07:13:58.637Z,1.65
2023-02-24T07:16:29.642Z,1.69
2023-02-24T07:19:11.115Z,1.70
2023-02-24T07:21:52.779Z,1.67
2023-02-24T07:24:32.853Z,1.68
2023-02-24T07:27:09.471Z,1.70
2023-02-24T07:29:37.826Z,1.74
2023-02-24T07:32:10.314Z,1.70
2023-02-24T07:34:43.580Z,1.71
2023-02-24T07:37:12.319Z,1.71
2023-02-24T07:39:43.234Z,1.68
2023-02-24T07:42:14.664Z,1.67
2023-02-24T07:44:46.577Z,1.69
2023-02-24T07:47:15.804Z,1.67
2023-02-24T07:49:48.268Z,1.64
2023-02-24T07:52:16.066Z,1.67
2023-02-24T07:54:45.441Z,1.60
2023-02-24T07:57:13.739Z,1.62
2023-02-24T07:59:47.255Z,1.59
2023-02-24T08:02:18.514Z,1.62
2023-02-24T08:04:51.580Z,1.65
2023-02-24T08:07:25.237Z,1.66
2023-02-24T08:10:14.125Z,1.67
2023-02-24T08:12:47.633Z,1.66
2023-02-24T08:15:17.738Z,1.70
2023-02-24T08:17:47.423Z,1.65
2023-02-24T08:20:15.851Z,1.63
2023-02-24T08:22:52.995Z,1.58
2023-02-24T08:25:35.304Z,1.57
2023-02-24T08:28:13.705Z,1.54
2023-02-24T08:30:47.695Z,1.55
2023-02-24T08:33:23.324Z,1.56
2023-02-24T08:36:02.199Z,1.53
2023-02-24T08:38:44.530Z,1.55
2023-02-24T08:41:20.891Z,1.57
2023-02-24T08:43:49.272Z,1.61
2023-02-24T08:46:36.914Z,1.71
2023-02-24T08:49:14.625Z,1.71
2023-02-24T08:52:02.486Z,1.72
2023-02-24T08:54:31.892Z,1.69
2023-02-24T08:57:08.239Z,1.65
2023-02-24T08:59:49.900Z,1.61
2023-02-24T09:02:29.676Z,1.57
2023-02-24T09:05:13.025Z,1.56
2023-02-24T09:07:54.711Z,1.59
2023-02-24T09:10:22.095Z,1.60
2023-02-24T09:12:49.264Z,1.61
2023-02-24T09:15:22.534Z,1.69
2023-02-24T09:18:01.343Z,1.86
2023-02-24T09:20:28.263Z,1.94
2023-02-24T09:23:12.713Z,1.95
2023-02-24T09:25:49.521Z,2.07
2023-02-24T09:28:27.062Z,2.11
2023-02-24T09:31:04.857Z,2.15
2023-02-24T09:33:52.177Z,2.14
2023-02-24T09:36:30.423Z,2.17
2023-02-24T09:39:17.690Z,2.23
2023-02-24T09:41:54.856Z,2.35
2023-02-24T09:44:50.707Z,2.44
2023-02-24T09:47:57.534Z,2.49
2023-02-24T10:41:03.199Z,3.85
2023-02-24T10:43:56.559Z,3.81
2023-02-24T11:41:38.466Z,6.98
2023-02-24T11:44:28.223Z,6.99
2023-02-24T11:47:10.267Z,6.84
2023-02-24T11:50:43.097Z,6.98
2023-02-24T11:54:00.593Z,7.23
2023-02-24T11:56:38.376Z,7.15
2023-02-24T12:00:05.425Z,7.54
2023-02-24T12:03:07.427Z,8.80
2023-02-24T12:05:51.637Z,9.17
2023-02-24T12:08:37.788Z,8.49
2023-02-24T12:11:43.601Z,9.28
2023-02-24T12:15:12.730Z,8.61
2023-02-24T12:18:15.275Z,9.96
2023-02-24T12:21:09.150Z,9.58
2023-02-24T12:23:46.702Z,9.64
2023-02-24T12:26:21.983Z,9.80
2023-02-24T12:29:16.176Z,10.00
2023-02-24T12:32:25.457Z,10.45
2023-02-24T12:35:34.117Z,10.92
2023-02-24T12:38:48.952Z,11.24
2023-02-24T12:41:58.110Z,10.06
2023-02-24T12:45:12.008Z,8.85
2023-02-24T12:48:44.723Z,7.70
2023-02-24T12:51:43.726Z,6.72
2023-02-24T12:54:36.666Z,5.74
2023-02-24T12:57:45.352Z,5.59
2023-02-24T13:00:47.442Z,5.63
2023-02-24T13:03:49.584Z,5.47
2023-02-24T13:07:12.399Z,5.69
2023-02-24T13:10:11.200Z,5.92
2023-02-24T13:13:24.063Z,6.45
2023-02-24T13:16:05.240Z,6.39
2023-02-24T13:18:46.936Z,6.92
2023-02-24T13:21:24.784Z,6.88
2023-02-24T13:25:07.042Z,7.58
2023-02-24T13:28:44.522Z,7.82
2023-02-24T13:35:15.086Z,6.56
2023-02-24T13:38:30.207Z,7.06
2023-02-24T13:41:26.514Z,7.01
2023-02-24T13:44:23.382Z,7.49
2023-02-24T13:48:02.744Z,8.12
2023-02-24T13:51:28.440Z,7.44
2023-02-24T13:55:01.756Z,6.97
2023-02-24T13:58:31.042Z,6.52
2023-02-24T14:01:19.247Z,6.94
2023-02-24T14:04:15.348Z,6.81
2023-02-24T14:07:19.714Z,6.57
2023-02-24T14:10:00.711Z,6.26
2023-02-24T14:12:35.229Z,6.09
2023-02-24T14:15:09.142Z,6.09
2023-02-24T14:17:37.726Z,6.97
2023-02-24T14:20:17.910Z,7.58
2023-02-24T14:23:01.972Z,7.43
2023-02-24T14:28:28.944Z,8.62
2023-02-24T14:31:14.513Z,9.16
2023-02-24T14:33:45.856Z,9.15
2023-02-24T14:36:28.994Z,8.80
2023-02-24T14:39:23.910Z,8.71
2023-02-24T14:42:13.491Z,7.85
2023-02-24T14:44:57.274Z,8.29
2023-02-24T14:47:43.841Z,7.78
2023-02-24T14:50:27.198Z,7.02
2023-02-24T14:53:20.324Z,6.90
2023-02-24T14:55:55.900Z,6.69
2023-02-24T14:59:17.073Z,6.62
2023-02-24T15:01:58.293Z,7.50
2023-02-24T15:04:47.427Z,8.34
2023-02-24T15:07:25.144Z,9.16
2023-02-24T15:09:55.393Z,9.31
2023-02-24T15:12:46.376Z,10.03
2023-02-24T15:15:32.349Z,9.83
2023-02-24T15:18:25.199Z,9.84
2023-02-24T15:21:12.530Z,9.49
2023-02-24T15:23:49.066Z,8.14
2023-02-24T15:26:35.179Z,7.96
2023-02-24T15:29:28.269Z,8.22
2023-02-24T15:32:19.325Z,7.95
2023-02-24T15:34:57.330Z,7.09
2023-02-24T15:37:33.184Z,6.35
2023-02-24T15:40:29.245Z,6.29
2023-02-24T15:43:16.015Z,6.27
2023-02-24T15:45:45.369Z,6.03
2023-02-24T15:48:33.815Z,5.87
2023-02-24T15:51:07.386Z,5.70
2023-02-24T15:53:37.169Z,5.60
2023-02-24T15:56:20.381Z,5.62
2023-02-24T15:58:52.723Z,5.63
2023-02-24T16:01:21.895Z,5.78
2023-02-24T16:03:49.683Z,5.86
2023-02-24T16:06:24.787Z,5.91
2023-02-24T16:09:03.304Z,5.88
2023-02-24T16:11:47.917Z,5.75
2023-02-24T16:14:18.115Z,5.64
2023-02-24T16:16:48.409Z,5.43
2023-02-24T16:19:16.476Z,5.28
2023-02-24T16:21:46.409Z,5.13
2023-02-24T16:24:21.238Z,4.92
2023-02-24T16:26:51.363Z,4.69
2023-02-24T16:29:18.230Z,4.52
2023-02-24T16:31:45.242Z,4.36
2023-02-24T16:34:23.794Z,4.17
2023-02-24T16:36:52.933Z,4.07
2023-02-24T16:39:19.659Z,4.02
2023-02-24T16:41:56.962Z,3.96
2023-02-24T16:44:26.790Z,4.06
2023-02-24T16:46:54.880Z,4.01
2023-02-24T16:49:22.279Z,4.02
2023-02-24T16:51:57.609Z,3.96
2023-02-24T16:54:29.452Z,3.88
2023-02-24T16:57:02.293Z,3.72
2023-02-24T16:59:28.966Z,3.62
2023-02-24T17:01:59.610Z,3.57
2023-02-24T17:04:26.585Z,3.50
2023-02-24T17:06:53.334Z,3.45
2023-02-24T17:09:20.184Z,3.39
2023-02-24T17:11:53.831Z,3.33
2023-02-24T17:14:21.136Z,3.32
2023-02-24T17:16:50.463Z,3.38
2023-02-24T17:19:26.164Z,3.43
2023-02-24T17:22:01.802Z,3.44
2023-02-24T17:24:31.560Z,3.44
2023-02-24T17:26:59.827Z,3.42
2023-02-24T17:29:32.519Z,3.38
2023-02-24T17:31:59.419Z,3.41
2023-02-24T17:34:27.655Z,3.42
2023-02-24T17:36:57.250Z,3.48
2023-02-24T17:39:24.052Z,3.53
2023-02-24T17:41:55.522Z,3.59
2023-02-24T17:44:25.156Z,3.58
2023-02-24T17:46:52.234Z,3.59
2023-02-24T17:49:19.517Z,3.60
2023-02-24T17:51:52.488Z,3.80
2023-02-24T17:54:19.383Z,3.90
2023-02-24T17:56:50.191Z,3.81
2023-02-24T18:46:20.236Z,2.71
2023-02-24T19:04:59.756Z,2.90
2023-02-24T19:07:29.230Z,2.98
2023-02-24T19:12:46.221Z,2.99
2023-02-24T19:20:34.950Z,2.91
2023-02-24T20:25:52.122Z,3.02
2023-02-24T20:28:21.119Z,3.05
2023-02-24T20:30:51.404Z,3.03
2023-02-24T20:33:19.225Z,2.98
2023-02-24T20:35:47.482Z,3.04
2023-02-24T20:38:14.715Z,3.04
2023-02-24T20:40:55.504Z,2.99
2023-02-24T20:43:22.303Z,2.82
2023-02-24T20:45:49.132Z,2.78
2023-02-24T20:48:15.937Z,2.69
2023-02-24T20:50:42.987Z,2.63
2023-02-24T20:53:09.741Z,2.58
2023-02-24T20:55:36.541Z,2.41
2023-02-24T20:58:03.621Z,2.39
2023-02-24T21:00:30.703Z,2.42
2023-02-24T21:02:58.117Z,2.41
2023-02-24T21:05:27.563Z,2.33
2023-02-24T21:07:54.391Z,2.38
2023-02-24T21:10:25.952Z,2.31
2023-02-24T21:12:52.899Z,2.19
2023-02-24T21:15:21.806Z,2.12
2023-02-24T21:17:49.212Z,2.24
2023-02-24T21:20:22.228Z,2.15
2023-02-24T21:22:48.980Z,2.08
2023-02-24T21:25:19.706Z,2.22
2023-02-24T21:27:48.404Z,2.25
2023-02-24T21:30:18.412Z,2.17
2023-02-24T21:32:45.355Z,2.19
2023-02-24T21:35:12.356Z,2.19
2023-02-24T21:37:39.969Z,2.20
2023-02-24T21:40:11.517Z,2.26
2023-02-24T21:42:50.001Z,2.15
2023-02-24T21:45:22.275Z,2.18
2023-02-24T21:47:49.453Z,2.20
2023-02-24T21:50:20.721Z,2.16
2023-02-24T21:52:49.175Z,2.14
2023-02-24T21:55:23.385Z,2.03
2023-02-24T21:57:50.349Z,2.03
2023-02-24T22:00:22.667Z,1.92
2023-02-24T22:02:54.673Z,1.95
2023-02-24T22:05:26.195Z,1.90
2023-02-24T22:07:53.105Z,1.81
2023-02-24T22:10:24.473Z,1.81
2023-02-24T22:12:56.795Z,1.81
2023-02-24T22:15:23.555Z,1.86
2023-02-24T22:17:50.466Z,1.91
2023-02-24T22:20:17.165Z,1.87
2023-02-24T22:22:47.154Z,1.90
2023-02-24T22:25:16.232Z,1.90
2023-02-24T22:27:43.195Z,1.90
2023-02-24T22:30:11.732Z,1.88
2023-02-24T22:32:38.640Z,1.90
2023-02-24T22:35:07.306Z,1.88
2023-02-24T22:37:34.180Z,1.86
2023-02-24T22:40:00.946Z,1.85
2023-02-24T22:42:27.847Z,1.76
2023-02-24T22:45:00.367Z,1.78
2023-02-24T22:47:27.614Z,1.78
2023-02-24T22:49:54.445Z,1.74
2023-02-24T22:52:32.908Z,1.71
2023-02-24T22:55:04.011Z,1.85
2023-02-24T22:57:34.002Z,1.90
2023-02-24T23:00:01.027Z,1.85
2023-02-24T23:02:30.675Z,1.93
2023-02-24T23:04:57.481Z,1.80
2023-02-24T23:07:24.383Z,1.86
2023-02-24T23:09:52.949Z,1.88
2023-02-24T23:12:24.313Z,1.83
2023-02-24T23:14:50.954Z,1.85
2023-02-24T23:17:17.644Z,1.86
2023-02-24T23:19:44.477Z,1.75
2023-02-24T23:22:11.090Z,1.76
2023-02-24T23:24:37.862Z,1.72
2023-02-24T23:27:06.083Z,1.66
2023-02-24T23:29:32.845Z,1.72
2023-02-24T23:31:59.706Z,1.73
2023-02-24T23:34:26.662Z,1.74
2023-02-24T23:36:56.636Z,1.78
2023-02-24T23:39:26.441Z,1.80
2023-02-24T23:41:57.464Z,1.78
2023-02-24T23:44:30.164Z,1.72
2023-02-24T23:47:00.013Z,1.73
2023-02-24T23:49:33.616Z,1.74
2023-02-24T23:52:11.863Z,1.69
2023-02-24T23:54:38.920Z,1.67
2023-02-24T23:57:05.713Z,1.66
2023-02-24T23:59:32.740Z,1.67
